sensor_id;sensor_type;location;lat;lon;timestamp;P1;durP1;ratioP1;P2;durP2;ratioP2
32505;SDS011;18955;51.224;8.482;2023-12-20T00:01:59;0.20;;;0.20;;
32505;SDS011;18955;51.224;8.482;2023-12-20T00:04:26;0.20;;;0.20;;
32505;SDS011;18955;51.224;8.482;2023-12-20T00:06:52;0.30;;;0.30;;
32505;SDS011;18955;51.224;8.482;2023-12-20T00:09:18;0.30;;;0.30;;
32505;SDS011;18955;51.224;8.482;2023-12-20T00:11:44;0.20;;;0.20;;
32505;SDS011;18955;51.224;8.482;2023-12-20T00:14:11;0.28;;;0.28;;
32505;SDS011;18955;51.224;8.482;2023-12-20T00:16:38;0.28;;;0.28;;
32505;SDS011;18955;51.224;8.482;2023-12-20T00:19:04;0.30;;;0.30;;
32505;SDS011;18955;51.224;8.482;2023-12-20T00:21:30;0.73;;;0.35;;
32505;SDS011;18955;51.224;8.482;2023-12-20T00:23:56;0.30;;;0.30;;
32505;SDS011;18955;51.224;8.482;2023-12-20T00:26:22;0.22;;;0.22;;
32505;SDS011;18955;51.224;8.482;2023-12-20T00:28:49;0.40;;;0.40;;
32505;SDS011;18955;51.224;8.482;2023-12-20T00:31:15;0.20;;;0.20;;
32505;SDS011;18955;51.224;8.482;2023-12-20T00:33:41;0.40;;;0.40;;
32505;SDS011;18955;51.224;8.482;2023-12-20T00:36:09;0.47;;;0.40;;
32505;SDS011;18955;51.224;8.482;2023-12-20T00:38:35;0.30;;;0.30;;
32505;SDS011;18955;51.224;8.482;2023-12-20T00:41:01;0.32;;;0.30;;
32505;SDS011;18955;51.224;8.482;2023-12-20T00:43:28;0.82;;;0.50;;
32505;SDS011;18955;51.224;8.482;2023-12-20T00:45:54;0.40;;;0.40;;
32505;SDS011;18955;51.224;8.482;2023-12-20T00:48:21;0.40;;;0.40;;
32505;SDS011;18955;51.224;8.482;2023-12-20T00:50:47;0.40;;;0.40;;
32505;SDS011;18955;51.224;8.482;2023-12-20T00:53:13;0.40;;;0.40;;
32505;SDS011;18955;51.224;8.482;2023-12-20T00:55:39;0.75;;;0.60;;
32505;SDS011;18955;51.224;8.482;2023-12-20T00:58:06;1.50;;;1.40;;
32505;SDS011;18955;51.224;8.482;2023-12-20T01:00:32;1.98;;;1.80;;
32505;SDS011;18955;51.224;8.482;2023-12-20T01:02:58;1.70;;;1.60;;
32505;SDS011;18955;51.224;8.482;2023-12-20T01:05:24;1.77;;;1.58;;
32505;SDS011;18955;51.224;8.482;2023-12-20T01:07:51;1.02;;;1.02;;
32505;SDS011;18955;51.224;8.482;2023-12-20T01:10:17;1.35;;;1.25;;
32505;SDS011;18955;51.224;8.482;2023-12-20T01:12:43;2.40;;;1.90;;
32505;SDS011;18955;51.224;8.482;2023-12-20T01:15:09;2.22;;;2.03;;
32505;SDS011;18955;51.224;8.482;2023-12-20T01:17:36;1.88;;;1.70;;
32505;SDS011;18955;51.224;8.482;2023-12-20T01:20:02;1.52;;;1.42;;
32505;SDS011;18955;51.224;8.482;2023-12-20T01:22:28;2.22;;;1.70;;
32505;SDS011;18955;51.224;8.482;2023-12-20T01:24:55;1.65;;;1.40;;
32505;SDS011;18955;51.224;8.482;2023-12-20T01:27:21;1.63;;;1.52;;
32505;SDS011;18955;51.224;8.482;2023-12-20T01:29:47;2.00;;;1.50;;
32505;SDS011;18955;51.224;8.482;2023-12-20T01:32:14;0.95;;;0.93;;
32505;SDS011;18955;51.224;8.482;2023-12-20T01:34:40;1.35;;;0.88;;
32505;SDS011;18955;51.224;8.482;2023-12-20T01:37:06;1.23;;;1.13;;
32505;SDS011;18955;51.224;8.482;2023-12-20T01:39:32;0.40;;;0.40;;
32505;SDS011;18955;51.224;8.482;2023-12-20T01:41:59;0.65;;;0.65;;
32505;SDS011;18955;51.224;8.482;2023-12-20T01:44:25;0.68;;;0.68;;
32505;SDS011;18955;51.224;8.482;2023-12-20T01:46:52;0.90;;;0.80;;
32505;SDS011;18955;51.224;8.482;2023-12-20T01:49:18;3.08;;;1.20;;
32505;SDS011;18955;51.224;8.482;2023-12-20T01:51:45;2.20;;;1.23;;
32505;SDS011;18955;51.224;8.482;2023-12-20T01:54:11;0.65;;;0.65;;
32505;SDS011;18955;51.224;8.482;2023-12-20T01:56:38;0.80;;;0.68;;
32505;SDS011;18955;51.224;8.482;2023-12-20T01:59:06;2.08;;;0.70;;
32505;SDS011;18955;51.224;8.482;2023-12-20T02:01:33;0.88;;;0.82;;
32505;SDS011;18955;51.224;8.482;2023-12-20T02:03:59;1.15;;;1.05;;
32505;SDS011;18955;51.224;8.482;2023-12-20T02:06:28;1.48;;;1.10;;
32505;SDS011;18955;51.224;8.482;2023-12-20T02:08:57;1.02;;;0.80;;
32505;SDS011;18955;51.224;8.482;2023-12-20T02:11:24;0.70;;;0.70;;
32505;SDS011;18955;51.224;8.482;2023-12-20T02:16:17;1.77;;;1.02;;
32505;SDS011;18955;51.224;8.482;2023-12-20T02:18:44;1.20;;;1.10;;
32505;SDS011;18955;51.224;8.482;2023-12-20T02:21:10;1.20;;;1.10;;
32505;SDS011;18955;51.224;8.482;2023-12-20T02:23:36;1.52;;;1.08;;
32505;SDS011;18955;51.224;8.482;2023-12-20T02:26:03;1.65;;;1.55;;
32505;SDS011;18955;51.224;8.482;2023-12-20T02:28:31;2.75;;;1.67;;
32505;SDS011;18955;51.224;8.482;2023-12-20T02:30:58;1.42;;;1.33;;
32505;SDS011;18955;51.224;8.482;2023-12-20T02:33:24;4.38;;;2.40;;
32505;SDS011;18955;51.224;8.482;2023-12-20T02:35:50;4.35;;;2.22;;
32505;SDS011;18955;51.224;8.482;2023-12-20T02:38:18;4.57;;;3.17;;
32505;SDS011;18955;51.224;8.482;2023-12-20T02:40:44;7.57;;;3.00;;
32505;SDS011;18955;51.224;8.482;2023-12-20T02:43:10;11.38;;;3.13;;
32505;SDS011;18955;51.224;8.482;2023-12-20T02:45:36;8.85;;;2.95;;
32505;SDS011;18955;51.224;8.482;2023-12-20T02:48:03;6.75;;;2.70;;
32505;SDS011;18955;51.224;8.482;2023-12-20T02:50:29;8.57;;;2.95;;
32505;SDS011;18955;51.224;8.482;2023-12-20T02:52:56;10.85;;;2.42;;
32505;SDS011;18955;51.224;8.482;2023-12-20T02:55:22;4.95;;;2.17;;
32505;SDS011;18955;51.224;8.482;2023-12-20T03:00:30;4.00;;;2.03;;
32505;SDS011;18955;51.224;8.482;2023-12-20T03:02:56;6.15;;;1.67;;
32505;SDS011;18955;51.224;8.482;2023-12-20T03:05:22;7.10;;;2.17;;
32505;SDS011;18955;51.224;8.482;2023-12-20T03:07:49;6.43;;;2.30;;
32505;SDS011;18955;51.224;8.482;2023-12-20T03:10:15;5.43;;;1.65;;
32505;SDS011;18955;51.224;8.482;2023-12-20T03:12:41;3.97;;;1.35;;
32505;SDS011;18955;51.224;8.482;2023-12-20T03:15:07;6.00;;;2.15;;
32505;SDS011;18955;51.224;8.482;2023-12-20T03:17:34;7.82;;;2.25;;
32505;SDS011;18955;51.224;8.482;2023-12-20T03:20:00;7.25;;;1.50;;
32505;SDS011;18955;51.224;8.482;2023-12-20T03:22:26;6.15;;;2.70;;
32505;SDS011;18955;51.224;8.482;2023-12-20T03:24:53;7.78;;;2.17;;
32505;SDS011;18955;51.224;8.482;2023-12-20T03:27:19;9.98;;;2.63;;
32505;SDS011;18955;51.224;8.482;2023-12-20T03:29:45;7.75;;;2.78;;
32505;SDS011;18955;51.224;8.482;2023-12-20T03:32:11;5.70;;;1.85;;
32505;SDS011;18955;51.224;8.482;2023-12-20T03:34:37;7.20;;;2.65;;
32505;SDS011;18955;51.224;8.482;2023-12-20T03:37:04;5.00;;;2.47;;
32505;SDS011;18955;51.224;8.482;2023-12-20T03:39:30;5.82;;;3.00;;
32505;SDS011;18955;51.224;8.482;2023-12-20T03:41:56;10.35;;;3.10;;
32505;SDS011;18955;51.224;8.482;2023-12-20T03:44:22;9.52;;;3.40;;
32505;SDS011;18955;51.224;8.482;2023-12-20T03:46:48;6.38;;;2.42;;
32505;SDS011;18955;51.224;8.482;2023-12-20T03:49:15;6.47;;;2.95;;
32505;SDS011;18955;51.224;8.482;2023-12-20T03:51:41;9.80;;;2.95;;
32505;SDS011;18955;51.224;8.482;2023-12-20T03:54:08;5.88;;;2.78;;
32505;SDS011;18955;51.224;8.482;2023-12-20T03:56:34;5.07;;;2.88;;
32505;SDS011;18955;51.224;8.482;2023-12-20T03:59:00;8.23;;;2.85;;
32505;SDS011;18955;51.224;8.482;2023-12-20T04:01:26;6.97;;;2.80;;
32505;SDS011;18955;51.224;8.482;2023-12-20T04:03:53;9.35;;;2.58;;
32505;SDS011;18955;51.224;8.482;2023-12-20T04:06:19;2.95;;;1.63;;
32505;SDS011;18955;51.224;8.482;2023-12-20T04:08:45;5.05;;;1.98;;
32505;SDS011;18955;51.224;8.482;2023-12-20T04:11:11;5.28;;;1.70;;
32505;SDS011;18955;51.224;8.482;2023-12-20T04:13:37;11.77;;;2.47;;
32505;SDS011;18955;51.224;8.482;2023-12-20T04:16:04;6.07;;;2.50;;
32505;SDS011;18955;51.224;8.482;2023-12-20T04:18:30;12.75;;;2.47;;
32505;SDS011;18955;51.224;8.482;2023-12-20T04:20:57;8.98;;;2.25;;
32505;SDS011;18955;51.224;8.482;2023-12-20T04:23:23;8.00;;;2.65;;
32505;SDS011;18955;51.224;8.482;2023-12-20T04:25:49;2.85;;;1.30;;
32505;SDS011;18955;51.224;8.482;2023-12-20T04:28:16;5.40;;;1.58;;
32505;SDS011;18955;51.224;8.482;2023-12-20T04:30:42;12.73;;;2.08;;
32505;SDS011;18955;51.224;8.482;2023-12-20T04:33:08;8.38;;;2.30;;
32505;SDS011;18955;51.224;8.482;2023-12-20T04:35:34;7.53;;;1.85;;
32505;SDS011;18955;51.224;8.482;2023-12-20T04:38:01;3.30;;;1.70;;
32505;SDS011;18955;51.224;8.482;2023-12-20T04:40:27;5.47;;;2.00;;
32505;SDS011;18955;51.224;8.482;2023-12-20T04:42:53;7.47;;;2.05;;
32505;SDS011;18955;51.224;8.482;2023-12-20T04:45:19;7.90;;;2.25;;
32505;SDS011;18955;51.224;8.482;2023-12-20T04:47:46;7.88;;;2.35;;
32505;SDS011;18955;51.224;8.482;2023-12-20T04:50:12;6.93;;;1.90;;
32505;SDS011;18955;51.224;8.482;2023-12-20T04:52:40;9.20;;;2.00;;
32505;SDS011;18955;51.224;8.482;2023-12-20T04:55:06;9.52;;;2.42;;
32505;SDS011;18955;51.224;8.482;2023-12-20T04:57:32;8.23;;;2.20;;
32505;SDS011;18955;51.224;8.482;2023-12-20T04:59:58;6.32;;;1.70;;
32505;SDS011;18955;51.224;8.482;2023-12-20T05:02:25;11.52;;;2.60;;
32505;SDS011;18955;51.224;8.482;2023-12-20T05:04:51;6.22;;;1.95;;
32505;SDS011;18955;51.224;8.482;2023-12-20T05:07:17;12.20;;;2.60;;
32505;SDS011;18955;51.224;8.482;2023-12-20T05:09:44;9.73;;;2.35;;
32505;SDS011;18955;51.224;8.482;2023-12-20T05:12:10;10.57;;;2.25;;
32505;SDS011;18955;51.224;8.482;2023-12-20T05:14:36;10.35;;;2.30;;
32505;SDS011;18955;51.224;8.482;2023-12-20T05:17:02;7.55;;;2.05;;
32505;SDS011;18955;51.224;8.482;2023-12-20T05:19:29;6.22;;;1.55;;
32505;SDS011;18955;51.224;8.482;2023-12-20T05:21:55;12.05;;;2.28;;
32505;SDS011;18955;51.224;8.482;2023-12-20T05:24:21;9.07;;;2.00;;
32505;SDS011;18955;51.224;8.482;2023-12-20T05:26:47;11.32;;;2.17;;
32505;SDS011;18955;51.224;8.482;2023-12-20T05:29:14;9.95;;;2.13;;
32505;SDS011;18955;51.224;8.482;2023-12-20T05:31:40;9.13;;;2.30;;
32505;SDS011;18955;51.224;8.482;2023-12-20T05:34:06;8.98;;;2.00;;
32505;SDS011;18955;51.224;8.482;2023-12-20T05:36:32;8.52;;;2.20;;
32505;SDS011;18955;51.224;8.482;2023-12-20T05:38:58;8.90;;;1.88;;
32505;SDS011;18955;51.224;8.482;2023-12-20T05:41:25;7.47;;;2.00;;
32505;SDS011;18955;51.224;8.482;2023-12-20T05:43:51;8.43;;;1.98;;
32505;SDS011;18955;51.224;8.482;2023-12-20T05:46:17;5.63;;;1.90;;
32505;SDS011;18955;51.224;8.482;2023-12-20T05:48:43;10.55;;;2.03;;
32505;SDS011;18955;51.224;8.482;2023-12-20T05:51:11;5.50;;;1.42;;
32505;SDS011;18955;51.224;8.482;2023-12-20T05:53:38;11.18;;;1.95;;
32505;SDS011;18955;51.224;8.482;2023-12-20T05:56:04;6.65;;;2.00;;
32505;SDS011;18955;51.224;8.482;2023-12-20T05:58:31;8.55;;;1.90;;
32505;SDS011;18955;51.224;8.482;2023-12-20T06:00:58;10.55;;;1.98;;
32505;SDS011;18955;51.224;8.482;2023-12-20T06:03:24;18.70;;;2.30;;
32505;SDS011;18955;51.224;8.482;2023-12-20T06:05:51;8.07;;;1.58;;
32505;SDS011;18955;51.224;8.482;2023-12-20T06:08:17;7.13;;;1.98;;
32505;SDS011;18955;51.224;8.482;2023-12-20T06:10:43;7.65;;;1.88;;
32505;SDS011;18955;51.224;8.482;2023-12-20T06:13:10;10.57;;;1.98;;
32505;SDS011;18955;51.224;8.482;2023-12-20T06:15:37;14.02;;;2.20;;
32505;SDS011;18955;51.224;8.482;2023-12-20T06:18:03;11.15;;;2.00;;
32505;SDS011;18955;51.224;8.482;2023-12-20T06:20:30;8.02;;;2.38;;
32505;SDS011;18955;51.224;8.482;2023-12-20T06:22:56;7.63;;;1.80;;
32505;SDS011;18955;51.224;8.482;2023-12-20T06:25:22;9.73;;;2.10;;
32505;SDS011;18955;51.224;8.482;2023-12-20T06:27:48;11.00;;;1.98;;
32505;SDS011;18955;51.224;8.482;2023-12-20T06:30:15;10.82;;;2.63;;
32505;SDS011;18955;51.224;8.482;2023-12-20T06:32:42;12.75;;;2.45;;
32505;SDS011;18955;51.224;8.482;2023-12-20T06:35:08;11.77;;;2.38;;
32505;SDS011;18955;51.224;8.482;2023-12-20T06:37:35;11.85;;;2.38;;
32505;SDS011;18955;51.224;8.482;2023-12-20T06:40:01;7.78;;;1.95;;
32505;SDS011;18955;51.224;8.482;2023-12-20T06:42:27;7.07;;;1.95;;
32505;SDS011;18955;51.224;8.482;2023-12-20T06:44:53;15.45;;;2.70;;
32505;SDS011;18955;51.224;8.482;2023-12-20T06:47:19;11.77;;;1.77;;
32505;SDS011;18955;51.224;8.482;2023-12-20T06:49:46;13.98;;;2.28;;
32505;SDS011;18955;51.224;8.482;2023-12-20T06:52:12;7.63;;;1.95;;
32505;SDS011;18955;51.224;8.482;2023-12-20T06:54:38;10.68;;;2.22;;
32505;SDS011;18955;51.224;8.482;2023-12-20T06:57:04;8.98;;;1.90;;
32505;SDS011;18955;51.224;8.482;2023-12-20T06:59:31;11.73;;;2.63;;
32505;SDS011;18955;51.224;8.482;2023-12-20T07:01:57;10.38;;;2.28;;
32505;SDS011;18955;51.224;8.482;2023-12-20T07:04:23;14.65;;;2.78;;
32505;SDS011;18955;51.224;8.482;2023-12-20T07:06:49;16.00;;;2.30;;
32505;SDS011;18955;51.224;8.482;2023-12-20T07:09:17;12.40;;;2.70;;
32505;SDS011;18955;51.224;8.482;2023-12-20T07:11:43;7.13;;;2.78;;
32505;SDS011;18955;51.224;8.482;2023-12-20T07:14:10;14.55;;;2.33;;
32505;SDS011;18955;51.224;8.482;2023-12-20T07:16:36;10.05;;;2.15;;
32505;SDS011;18955;51.224;8.482;2023-12-20T07:19:02;15.48;;;2.40;;
32505;SDS011;18955;51.224;8.482;2023-12-20T07:21:28;7.72;;;2.40;;
32505;SDS011;18955;51.224;8.482;2023-12-20T07:23:55;7.00;;;1.75;;
32505;SDS011;18955;51.224;8.482;2023-12-20T07:26:21;8.63;;;1.95;;
32505;SDS011;18955;51.224;8.482;2023-12-20T07:28:47;10.32;;;2.08;;
32505;SDS011;18955;51.224;8.482;2023-12-20T07:31:15;7.40;;;1.90;;
32505;SDS011;18955;51.224;8.482;2023-12-20T07:33:41;13.85;;;2.58;;
32505;SDS011;18955;51.224;8.482;2023-12-20T07:36:08;12.63;;;2.47;;
32505;SDS011;18955;51.224;8.482;2023-12-20T07:38:34;11.15;;;2.72;;
32505;SDS011;18955;51.224;8.482;2023-12-20T07:41:00;13.63;;;2.47;;
32505;SDS011;18955;51.224;8.482;2023-12-20T07:43:26;3.63;;;1.58;;
32505;SDS011;18955;51.224;8.482;2023-12-20T07:45:53;10.20;;;2.08;;
32505;SDS011;18955;51.224;8.482;2023-12-20T07:48:19;10.30;;;1.95;;
32505;SDS011;18955;51.224;8.482;2023-12-20T07:50:45;15.60;;;2.00;;
32505;SDS011;18955;51.224;8.482;2023-12-20T07:53:11;13.70;;;3.03;;
32505;SDS011;18955;51.224;8.482;2023-12-20T07:55:38;12.90;;;3.17;;
32505;SDS011;18955;51.224;8.482;2023-12-20T07:58:05;6.32;;;1.75;;
32505;SDS011;18955;51.224;8.482;2023-12-20T08:00:31;7.75;;;1.77;;
32505;SDS011;18955;51.224;8.482;2023-12-20T08:02:57;11.18;;;1.95;;
32505;SDS011;18955;51.224;8.482;2023-12-20T08:05:23;5.18;;;1.92;;
32505;SDS011;18955;51.224;8.482;2023-12-20T08:07:50;9.90;;;1.88;;
32505;SDS011;18955;51.224;8.482;2023-12-20T08:10:16;11.23;;;2.20;;
32505;SDS011;18955;51.224;8.482;2023-12-20T08:12:44;7.47;;;1.88;;
32505;SDS011;18955;51.224;8.482;2023-12-20T08:15:11;8.05;;;1.95;;
32505;SDS011;18955;51.224;8.482;2023-12-20T08:17:37;9.50;;;2.38;;
32505;SDS011;18955;51.224;8.482;2023-12-20T08:20:03;6.13;;;1.67;;
32505;SDS011;18955;51.224;8.482;2023-12-20T08:22:30;5.15;;;1.90;;
32505;SDS011;18955;51.224;8.482;2023-12-20T08:24:56;5.88;;;2.05;;
32505;SDS011;18955;51.224;8.482;2023-12-20T08:27:22;8.50;;;1.70;;
32505;SDS011;18955;51.224;8.482;2023-12-20T08:29:49;6.90;;;1.55;;
32505;SDS011;18955;51.224;8.482;2023-12-20T08:32:16;8.32;;;1.90;;
32505;SDS011;18955;51.224;8.482;2023-12-20T08:34:42;6.65;;;1.70;;
32505;SDS011;18955;51.224;8.482;2023-12-20T08:37:08;8.48;;;1.73;;
32505;SDS011;18955;51.224;8.482;2023-12-20T08:39:34;5.03;;;1.52;;
32505;SDS011;18955;51.224;8.482;2023-12-20T08:42:01;8.32;;;1.88;;
32505;SDS011;18955;51.224;8.482;2023-12-20T08:44:27;9.23;;;2.40;;
32505;SDS011;18955;51.224;8.482;2023-12-20T08:46:53;4.63;;;1.45;;
32505;SDS011;18955;51.224;8.482;2023-12-20T08:49:22;11.20;;;2.25;;
32505;SDS011;18955;51.224;8.482;2023-12-20T08:51:49;10.88;;;2.20;;
32505;SDS011;18955;51.224;8.482;2023-12-20T08:54:15;4.82;;;1.40;;
32505;SDS011;18955;51.224;8.482;2023-12-20T08:56:42;11.75;;;2.17;;
32505;SDS011;18955;51.224;8.482;2023-12-20T08:59:09;9.85;;;2.25;;
32505;SDS011;18955;51.224;8.482;2023-12-20T09:01:35;9.10;;;2.67;;
32505;SDS011;18955;51.224;8.482;2023-12-20T09:04:01;16.13;;;2.30;;
32505;SDS011;18955;51.224;8.482;2023-12-20T09:06:28;11.43;;;2.30;;
32505;SDS011;18955;51.224;8.482;2023-12-20T09:08:54;11.88;;;2.78;;
32505;SDS011;18955;51.224;8.482;2023-12-20T09:11:20;7.78;;;2.58;;
32505;SDS011;18955;51.224;8.482;2023-12-20T09:13:47;8.55;;;2.65;;
32505;SDS011;18955;51.224;8.482;2023-12-20T09:16:13;8.55;;;2.20;;
32505;SDS011;18955;51.224;8.482;2023-12-20T09:18:41;10.07;;;2.45;;
32505;SDS011;18955;51.224;8.482;2023-12-20T09:23:34;8.57;;;2.20;;
32505;SDS011;18955;51.224;8.482;2023-12-20T09:26:00;10.85;;;2.47;;
32505;SDS011;18955;51.224;8.482;2023-12-20T09:28:26;6.72;;;1.58;;
32505;SDS011;18955;51.224;8.482;2023-12-20T09:30:53;6.50;;;1.65;;
32505;SDS011;18955;51.224;8.482;2023-12-20T09:33:19;11.43;;;2.60;;
32505;SDS011;18955;51.224;8.482;2023-12-20T09:35:45;14.65;;;2.97;;
32505;SDS011;18955;51.224;8.482;2023-12-20T09:38:11;13.10;;;2.63;;
32505;SDS011;18955;51.224;8.482;2023-12-20T09:40:41;8.27;;;2.25;;
32505;SDS011;18955;51.224;8.482;2023-12-20T09:43:11;8.43;;;2.50;;
32505;SDS011;18955;51.224;8.482;2023-12-20T09:45:41;9.27;;;2.20;;
32505;SDS011;18955;51.224;8.482;2023-12-20T09:48:11;7.00;;;1.80;;
32505;SDS011;18955;51.224;8.482;2023-12-20T09:50:38;12.15;;;2.80;;
32505;SDS011;18955;51.224;8.482;2023-12-20T09:55:34;6.50;;;2.22;;
32505;SDS011;18955;51.224;8.482;2023-12-20T09:58:02;5.57;;;2.20;;
32505;SDS011;18955;51.224;8.482;2023-12-20T10:00:28;13.50;;;2.45;;
32505;SDS011;18955;51.224;8.482;2023-12-20T10:05:28;11.05;;;2.30;;
32505;SDS011;18955;51.224;8.482;2023-12-20T10:07:56;7.70;;;2.65;;
32505;SDS011;18955;51.224;8.482;2023-12-20T10:10:23;9.40;;;2.30;;
32505;SDS011;18955;51.224;8.482;2023-12-20T10:13:05;11.02;;;2.22;;
32505;SDS011;18955;51.224;8.482;2023-12-20T10:15:36;11.40;;;2.70;;
32505;SDS011;18955;51.224;8.482;2023-12-20T10:18:03;6.78;;;2.00;;
32505;SDS011;18955;51.224;8.482;2023-12-20T10:20:30;8.77;;;2.28;;
32505;SDS011;18955;51.224;8.482;2023-12-20T10:25:24;7.47;;;2.72;;
32505;SDS011;18955;51.224;8.482;2023-12-20T10:28:08;11.30;;;3.22;;
32505;SDS011;18955;51.224;8.482;2023-12-20T10:30:36;6.82;;;2.00;;
32505;SDS011;18955;51.224;8.482;2023-12-20T10:33:02;11.43;;;2.20;;
32505;SDS011;18955;51.224;8.482;2023-12-20T10:35:29;6.68;;;2.20;;
32505;SDS011;18955;51.224;8.482;2023-12-20T10:37:55;10.15;;;2.10;;
32505;SDS011;18955;51.224;8.482;2023-12-20T10:42:48;8.45;;;2.75;;
32505;SDS011;18955;51.224;8.482;2023-12-20T10:45:16;11.07;;;5.40;;
32505;SDS011;18955;51.224;8.482;2023-12-20T10:47:46;10.50;;;2.70;;
32505;SDS011;18955;51.224;8.482;2023-12-20T10:50:12;9.93;;;3.33;;
32505;SDS011;18955;51.224;8.482;2023-12-20T10:52:38;12.73;;;3.35;;
32505;SDS011;18955;51.224;8.482;2023-12-20T10:55:06;10.82;;;3.10;;
32505;SDS011;18955;51.224;8.482;2023-12-20T10:57:33;12.35;;;2.45;;
32505;SDS011;18955;51.224;8.482;2023-12-20T11:00:02;7.75;;;2.13;;
32505;SDS011;18955;51.224;8.482;2023-12-20T11:02:32;7.03;;;2.05;;
32505;SDS011;18955;51.224;8.482;2023-12-20T11:05:06;11.48;;;3.05;;
32505;SDS011;18955;51.224;8.482;2023-12-20T11:07:50;8.68;;;2.30;;
32505;SDS011;18955;51.224;8.482;2023-12-20T11:10:37;8.73;;;2.22;;
32505;SDS011;18955;51.224;8.482;2023-12-20T11:13:23;13.02;;;3.60;;
32505;SDS011;18955;51.224;8.482;2023-12-20T11:16:00;8.07;;;2.13;;
32505;SDS011;18955;51.224;8.482;2023-12-20T11:18:29;10.52;;;2.20;;
32505;SDS011;18955;51.224;8.482;2023-12-20T11:21:00;7.82;;;2.38;;
32505;SDS011;18955;51.224;8.482;2023-12-20T11:23:32;13.00;;;2.55;;
32505;SDS011;18955;51.224;8.482;2023-12-20T11:26:01;12.70;;;2.28;;
32505;SDS011;18955;51.224;8.482;2023-12-20T11:28:28;8.02;;;2.45;;
32505;SDS011;18955;51.224;8.482;2023-12-20T11:30:58;7.28;;;2.20;;
32505;SDS011;18955;51.224;8.482;2023-12-20T11:33:36;8.35;;;2.15;;
32505;SDS011;18955;51.224;8.482;2023-12-20T11:36:03;10.15;;;2.03;;
32505;SDS011;18955;51.224;8.482;2023-12-20T11:38:38;6.30;;;1.75;;
32505;SDS011;18955;51.224;8.482;2023-12-20T11:41:07;4.72;;;1.40;;
32505;SDS011;18955;51.224;8.482;2023-12-20T11:43:37;8.73;;;2.00;;
32505;SDS011;18955;51.224;8.482;2023-12-20T11:46:04;6.40;;;1.50;;
32505;SDS011;18955;51.224;8.482;2023-12-20T11:48:32;5.22;;;1.48;;
32505;SDS011;18955;51.224;8.482;2023-12-20T11:51:00;4.88;;;1.60;;
32505;SDS011;18955;51.224;8.482;2023-12-20T11:53:26;6.13;;;1.58;;
32505;SDS011;18955;51.224;8.482;2023-12-20T11:55:53;3.38;;;1.33;;
32505;SDS011;18955;51.224;8.482;2023-12-20T11:58:20;6.20;;;1.45;;
32505;SDS011;18955;51.224;8.482;2023-12-20T12:00:48;4.85;;;0.98;;
32505;SDS011;18955;51.224;8.482;2023-12-20T12:03:15;3.20;;;1.25;;
32505;SDS011;18955;51.224;8.482;2023-12-20T12:05:41;2.22;;;1.10;;
32505;SDS011;18955;51.224;8.482;2023-12-20T12:08:08;2.25;;;1.15;;
32505;SDS011;18955;51.224;8.482;2023-12-20T12:10:34;3.42;;;1.30;;
32505;SDS011;18955;51.224;8.482;2023-12-20T12:13:00;3.40;;;1.50;;
32505;SDS011;18955;51.224;8.482;2023-12-20T12:15:26;4.88;;;1.50;;
32505;SDS011;18955;51.224;8.482;2023-12-20T12:17:53;2.28;;;1.00;;
32505;SDS011;18955;51.224;8.482;2023-12-20T12:20:21;4.78;;;1.55;;
32505;SDS011;18955;51.224;8.482;2023-12-20T12:23:01;2.42;;;1.08;;
32505;SDS011;18955;51.224;8.482;2023-12-20T12:25:29;2.00;;;0.80;;
32505;SDS011;18955;51.224;8.482;2023-12-20T12:27:57;1.17;;;1.05;;
32505;SDS011;18955;51.224;8.482;2023-12-20T12:30:24;4.95;;;1.30;;
32505;SDS011;18955;51.224;8.482;2023-12-20T12:32:51;5.70;;;1.20;;
32505;SDS011;18955;51.224;8.482;2023-12-20T12:35:19;3.05;;;1.30;;
32505;SDS011;18955;51.224;8.482;2023-12-20T12:37:46;5.68;;;2.42;;
32505;SDS011;18955;51.224;8.482;2023-12-20T12:40:13;3.50;;;1.38;;
32505;SDS011;18955;51.224;8.482;2023-12-20T12:42:41;4.25;;;2.30;;
32505;SDS011;18955;51.224;8.482;2023-12-20T12:45:09;5.07;;;1.65;;
32505;SDS011;18955;51.224;8.482;2023-12-20T12:47:37;7.28;;;3.75;;
32505;SDS011;18955;51.224;8.482;2023-12-20T12:50:04;16.50;;;6.35;;
32505;SDS011;18955;51.224;8.482;2023-12-20T12:52:31;11.52;;;3.63;;
32505;SDS011;18955;51.224;8.482;2023-12-20T12:54:57;4.22;;;1.88;;
32505;SDS011;18955;51.224;8.482;2023-12-20T12:57:24;2.00;;;1.48;;
32505;SDS011;18955;51.224;8.482;2023-12-20T12:59:51;2.35;;;1.30;;
32505;SDS011;18955;51.224;8.482;2023-12-20T13:02:17;3.15;;;1.70;;
32505;SDS011;18955;51.224;8.482;2023-12-20T13:07:10;2.60;;;1.52;;
32505;SDS011;18955;51.224;8.482;2023-12-20T13:09:37;6.05;;;3.05;;
32505;SDS011;18955;51.224;8.482;2023-12-20T13:14:32;4.45;;;1.73;;
32505;SDS011;18955;51.224;8.482;2023-12-20T13:17:03;2.88;;;1.33;;
32505;SDS011;18955;51.224;8.482;2023-12-20T13:19:29;2.50;;;1.20;;
32505;SDS011;18955;51.224;8.482;2023-12-20T13:21:56;2.53;;;1.20;;
32505;SDS011;18955;51.224;8.482;2023-12-20T13:24:23;3.03;;;1.17;;
32505;SDS011;18955;51.224;8.482;2023-12-20T13:26:50;1.52;;;1.05;;
32505;SDS011;18955;51.224;8.482;2023-12-20T13:29:16;5.95;;;1.52;;
32505;SDS011;18955;51.224;8.482;2023-12-20T13:31:42;2.85;;;1.13;;
32505;SDS011;18955;51.224;8.482;2023-12-20T13:34:11;2.60;;;1.92;;
32505;SDS011;18955;51.224;8.482;2023-12-20T13:36:38;2.03;;;1.00;;
32505;SDS011;18955;51.224;8.482;2023-12-20T13:39:04;3.40;;;1.20;;
32505;SDS011;18955;51.224;8.482;2023-12-20T13:41:31;3.72;;;1.35;;
32505;SDS011;18955;51.224;8.482;2023-12-20T13:43:57;2.80;;;1.13;;
32505;SDS011;18955;51.224;8.482;2023-12-20T13:46:23;1.27;;;0.88;;
32505;SDS011;18955;51.224;8.482;2023-12-20T13:48:50;6.25;;;1.65;;
32505;SDS011;18955;51.224;8.482;2023-12-20T13:51:16;4.65;;;1.40;;
32505;SDS011;18955;51.224;8.482;2023-12-20T13:53:42;7.28;;;1.85;;
32505;SDS011;18955;51.224;8.482;2023-12-20T13:56:08;4.03;;;1.80;;
32505;SDS011;18955;51.224;8.482;2023-12-20T13:58:35;4.85;;;1.60;;
32505;SDS011;18955;51.224;8.482;2023-12-20T14:01:01;8.40;;;1.88;;
32505;SDS011;18955;51.224;8.482;2023-12-20T14:03:27;8.63;;;2.40;;
32505;SDS011;18955;51.224;8.482;2023-12-20T14:05:53;7.72;;;2.15;;
32505;SDS011;18955;51.224;8.482;2023-12-20T14:08:20;6.07;;;1.80;;
32505;SDS011;18955;51.224;8.482;2023-12-20T14:10:46;4.63;;;1.60;;
32505;SDS011;18955;51.224;8.482;2023-12-20T14:13:12;3.10;;;1.40;;
32505;SDS011;18955;51.224;8.482;2023-12-20T14:15:38;3.83;;;1.23;;
32505;SDS011;18955;51.224;8.482;2023-12-20T14:18:05;7.35;;;2.10;;
32505;SDS011;18955;51.224;8.482;2023-12-20T14:20:32;8.13;;;1.92;;
32505;SDS011;18955;51.224;8.482;2023-12-20T14:23:00;4.18;;;1.80;;
32505;SDS011;18955;51.224;8.482;2023-12-20T14:25:27;7.50;;;1.60;;
32505;SDS011;18955;51.224;8.482;2023-12-20T14:27:53;5.55;;;1.75;;
32505;SDS011;18955;51.224;8.482;2023-12-20T14:30:20;7.20;;;1.95;;
32505;SDS011;18955;51.224;8.482;2023-12-20T14:32:46;5.13;;;1.33;;
32505;SDS011;18955;51.224;8.482;2023-12-20T14:35:13;4.95;;;1.88;;
32505;SDS011;18955;51.224;8.482;2023-12-20T14:37:40;8.90;;;2.00;;
32505;SDS011;18955;51.224;8.482;2023-12-20T14:40:06;8.15;;;1.80;;
32505;SDS011;18955;51.224;8.482;2023-12-20T14:42:43;4.30;;;1.52;;
32505;SDS011;18955;51.224;8.482;2023-12-20T14:45:10;6.40;;;1.92;;
32505;SDS011;18955;51.224;8.482;2023-12-20T14:47:36;4.13;;;1.15;;
32505;SDS011;18955;51.224;8.482;2023-12-20T14:50:03;5.72;;;1.70;;
32505;SDS011;18955;51.224;8.482;2023-12-20T14:52:30;4.63;;;1.70;;
32505;SDS011;18955;51.224;8.482;2023-12-20T14:54:57;5.15;;;1.77;;
32505;SDS011;18955;51.224;8.482;2023-12-20T14:57:23;2.33;;;1.50;;
32505;SDS011;18955;51.224;8.482;2023-12-20T14:59:49;2.05;;;1.27;;
32505;SDS011;18955;51.224;8.482;2023-12-20T15:02:15;3.10;;;1.00;;
32505;SDS011;18955;51.224;8.482;2023-12-20T15:04:42;3.30;;;1.80;;
32505;SDS011;18955;51.224;8.482;2023-12-20T15:07:08;4.15;;;1.38;;